Time;durP1;ratioP1;P1;durP2;ratioP2;P2;SDS_P1;SDS_P2;PMS_P1;PMS_P2;Temp;Humidity;BMP_temperature;BMP_pressure;BME280_temperature;BME280_humidity;BME280_pressure;Samples;Min_cycle;Max_cycle;Signal;HPM_P1;HPM_P2
2022/04/11 00:00:12;;;;;;;5.57;1.00;;;2.80;74.90;;;;;;4106527;28;20041;-83
2022/04/11 00:02:14;;;;;;;2.58;0.75;;;2.70;74.80;;;;;;4100603;28;20049;-80
2022/04/11 00:04:15;;;;;;;6.47;1.20;;;2.70;74.80;;;;;;4090630;28;20611;-80
2022/04/11 00:06:15;;;;;;;4.05;0.90;;;2.70;74.80;;;;;;4086888;28;20086;-81
2022/04/11 00:08:17;;;;;;;5.30;1.00;;;2.70;74.80;;;;;;4104833;28;20039;-82
2022/04/11 00:10:18;;;;;;;6.68;1.05;;;2.60;74.80;;;;;;4089861;28;20039;-82
2022/04/11 00:12:19;;;;;;;12.05;1.23;;;2.60;74.80;;;;;;4091577;28;20170;-82
2022/04/11 00:14:19;;;;;;;6.78;1.15;;;2.60;75.40;;;;;;4108555;28;20422;-82
2022/04/11 00:16:20;;;;;;;3.22;0.82;;;2.50;74.60;;;;;;4108460;28;20062;-81
2022/04/11 00:18:20;;;;;;;5.97;1.00;;;2.50;74.60;;;;;;4089238;28;20097;-83
2022/04/11 00:20:21;;;;;;;2.88;0.90;;;2.50;74.60;;;;;;4087074;28;20086;-83
2022/04/11 00:22:22;;;;;;;0.93;0.57;;;2.50;74.60;;;;;;4091525;28;20110;-80
2022/04/11 00:24:22;;;;;;;4.28;0.90;;;2.50;74.70;;;;;;4096641;28;20153;-82
2022/04/11 00:26:23;;;;;;;4.55;0.88;;;2.40;75.30;;;;;;4084558;28;20039;-83
2022/04/11 00:28:24;;;;;;;3.25;0.77;;;2.40;75.30;;;;;;4087421;28;20035;-82
2022/04/11 00:30:24;;;;;;;6.60;0.95;;;2.40;74.60;;;;;;4089797;28;20102;-80
2022/04/11 00:32:25;;;;;;;6.43;1.20;;;2.40;74.60;;;;;;4085496;28;20039;-82
2022/04/11 00:34:26;;;;;;;5.53;0.80;;;2.30;74.50;;;;;;4085327;28;20145;-82
2022/04/11 00:36:26;;;;;;;1.88;0.75;;;2.30;74.60;;;;;;4089908;28;20046;-81
2022/04/11 00:38:27;;;;;;;5.57;0.98;;;2.30;74.60;;;;;;4085317;28;20039;-82
2022/04/11 00:40:27;;;;;;;4.25;0.80;;;2.30;74.60;;;;;;4084679;28;20038;-81
2022/04/11 00:42:28;;;;;;;3.33;1.20;;;2.30;74.60;;;;;;4087054;28;20045;-81
2022/04/11 00:44:29;;;;;;;8.98;1.30;;;2.20;74.50;;;;;;4068337;28;20023;-80
2022/04/11 00:46:29;;;;;;;8.43;1.17;;;2.30;74.60;;;;;;4082958;28;20059;-81
2022/04/11 00:48:31;;;;;;;4.35;1.02;;;2.30;74.60;;;;;;4083877;28;20031;-82
2022/04/11 00:50:31;;;;;;;4.25;1.00;;;2.20;74.60;;;;;;4084668;28;20035;-81
2022/04/11 00:52:35;;;;;;;3.65;1.00;;;2.10;74.50;;;;;;4087670;28;20555;-81
2022/04/11 00:54:37;;;;;;;4.03;1.20;;;2.10;74.50;;;;;;4084698;28;20061;-81
2022/04/11 00:56:38;;;;;;;7.05;1.40;;;2.10;74.50;;;;;;4098396;28;20027;-83
2022/04/11 00:58:39;;;;;;;9.18;1.10;;;2.10;74.60;;;;;;4084210;28;20078;-82
2022/04/11 01:00:40;;;;;;;6.68;1.40;;;2.10;74.80;;;;;;4082510;28;20050;-81
2022/04/11 01:02:41;;;;;;;6.05;1.40;;;2.00;74.80;;;;;;4085385;28;20063;-80
2022/04/11 01:04:42;;;;;;;6.82;1.10;;;2.00;74.90;;;;;;4099349;28;20050;-82
2022/04/11 01:06:42;;;;;;;8.07;1.05;;;2.00;74.90;;;;;;4086994;28;20019;-80
2022/04/11 01:08:43;;;;;;;5.57;1.08;;;2.00;75.00;;;;;;4085290;28;20030;-82
2022/04/11 01:10:44;;;;;;;7.10;1.30;;;2.00;75.00;;;;;;4099494;28;20414;-83
2022/04/11 01:12:44;;;;;;;6.50;1.08;;;2.00;75.10;;;;;;4088000;28;20039;-81
2022/04/11 01:14:45;;;;;;;10.88;1.42;;;2.00;75.30;;;;;;4082630;28;20055;-80
2022/04/11 01:16:50;;;;;;;6.65;1.48;;;2.00;75.30;;;;;;4081104;28;20069;-82
2022/04/11 01:18:50;;;;;;;8.25;1.40;;;2.00;75.40;;;;;;4100397;28;20068;-82
2022/04/11 01:20:51;;;;;;;7.10;1.35;;;2.00;75.50;;;;;;4085189;28;20032;-82
2022/04/11 01:22:52;;;;;;;5.68;1.55;;;1.90;75.50;;;;;;4082263;28;20039;-82
2022/04/11 01:24:53;;;;;;;5.18;1.45;;;1.90;75.60;;;;;;4082176;28;20131;-83
2022/04/11 01:26:54;;;;;;;4.18;1.40;;;2.00;75.60;;;;;;4086994;28;20032;-81
2022/04/11 01:28:55;;;;;;;7.53;1.35;;;1.90;75.60;;;;;;4080516;28;20459;-83
2022/04/11 01:30:56;;;;;;;4.35;1.60;;;1.90;75.70;;;;;;4085315;28;20031;-81
2022/04/11 01:32:57;;;;;;;6.55;1.33;;;2.00;75.90;;;;;;4085756;28;20044;-83
2022/04/11 01:34:57;;;;;;;5.35;1.00;;;1.90;75.80;;;;;;4085314;28;20097;-84
2022/04/11 01:36:58;;;;;;;10.48;1.48;;;1.90;75.90;;;;;;4086457;28;20424;-80
2022/04/11 01:38:59;;;;;;;8.73;1.13;;;1.90;76.00;;;;;;4085707;28;20031;-83
2022/04/11 01:41:00;;;;;;;5.45;1.33;;;1.90;76.00;;;;;;4085409;28;20046;-82
2022/04/11 01:43:00;;;;;;;5.85;1.42;;;1.90;76.10;;;;;;4082820;28;20042;-81
2022/04/11 01:45:01;;;;;;;9.32;1.67;;;1.90;76.10;;;;;;4085209;28;20039;-83
2022/04/11 01:47:02;;;;;;;8.43;1.50;;;1.90;76.10;;;;;;4082406;28;20040;-82
2022/04/11 01:49:03;;;;;;;5.43;1.30;;;2.00;76.20;;;;;;4083812;28;20114;-82
2022/04/11 01:51:04;;;;;;;10.57;1.63;;;1.90;76.20;;;;;;4084449;28;20062;-82
2022/04/11 01:53:09;;;;;;;6.57;1.73;;;2.00;76.20;;;;;;4087847;28;20039;-81
2022/04/11 01:55:10;;;;;;;8.95;1.30;;;1.90;76.20;;;;;;4087595;28;20138;-83
2022/04/11 01:57:11;;;;;;;5.00;1.40;;;2.00;76.20;;;;;;4081434;28;20079;-82
2022/04/11 01:59:13;;;;;;;10.43;1.83;;;1.90;76.40;;;;;;4081420;28;20106;-80
2022/04/11 02:01:17;;;;;;;6.90;1.30;;;1.90;76.60;;;;;;4080714;28;20075;-80
2022/04/11 02:03:18;;;;;;;6.57;1.48;;;1.90;76.60;;;;;;4082104;28;20081;-81
2022/04/11 02:05:19;;;;;;;8.10;1.58;;;1.90;76.50;;;;;;4100031;28;20482;-81
2022/04/11 02:07:19;;;;;;;6.05;1.50;;;1.90;76.60;;;;;;4085691;28;20027;-81
2022/04/11 02:09:20;;;;;;;5.63;1.38;;;1.90;76.80;;;;;;4086673;28;20057;-81
2022/04/11 02:11:21;;;;;;;3.83;1.40;;;1.90;76.80;;;;;;4084927;28;20031;-81
2022/04/11 02:13:21;;;;;;;8.35;1.48;;;1.90;76.90;;;;;;4081294;28;20085;-80
2022/04/11 02:15:22;;;;;;;7.20;1.40;;;2.00;76.90;;;;;;4086411;28;20037;-82
2022/04/11 02:17:23;;;;;;;4.07;1.13;;;2.00;76.90;;;;;;4083836;28;20491;-82
2022/04/11 02:19:23;;;;;;;8.18;1.60;;;2.00;76.90;;;;;;4098811;28;20700;-83
2022/04/11 02:21:24;;;;;;;5.57;1.63;;;2.00;76.90;;;;;;4083176;28;20644;-82
2022/04/11 02:23:25;;;;;;;6.82;1.45;;;2.00;77.00;;;;;;4080819;28;20031;-83
2022/04/11 02:25:28;;;;;;;2.88;1.30;;;2.00;77.10;;;;;;4088998;28;20024;-82
2022/04/11 02:27:28;;;;;;;;;;;2.00;77.20;;;;;;4087564;28;20043;-82
2022/04/11 02:29:29;;;;;;;5.78;1.50;;;2.00;77.80;;;;;;4079370;28;19918;-82
2022/04/11 02:31:30;;;;;;;6.43;1.40;;;2.00;77.10;;;;;;4100982;28;20414;-81
2022/04/11 02:33:30;;;;;;;9.60;1.60;;;2.00;77.10;;;;;;4087402;28;20896;-81
2022/04/11 02:35:31;;;;;;;10.60;1.88;;;2.00;77.00;;;;;;4086028;28;20036;-81
2022/04/11 02:37:33;;;;;;;4.65;1.40;;;2.00;77.10;;;;;;4098052;28;20031;-81
2022/04/11 02:39:33;;;;;;;2.70;1.10;;;2.10;77.30;;;;;;4086113;28;20038;-81
2022/04/11 02:41:34;;;;;;;9.80;1.75;;;2.10;77.30;;;;;;4081599;28;20041;-81
2022/04/11 02:43:35;;;;;;;9.48;1.75;;;2.10;77.30;;;;;;4082460;28;20063;-81
2022/04/11 02:45:35;;;;;;;13.15;1.58;;;2.10;77.50;;;;;;4082441;28;20034;-81
2022/04/11 02:47:36;;;;;;;7.35;1.50;;;2.10;77.50;;;;;;4088699;28;20034;-80
2022/04/11 02:49:37;;;;;;;5.38;1.75;;;2.10;77.40;;;;;;4087560;28;20037;-83
2022/04/11 02:51:37;;;;;;;14.43;1.90;;;2.10;77.30;;;;;;4085129;28;20043;-82
2022/04/11 02:53:38;;;;;;;5.97;1.98;;;2.10;77.30;;;;;;4082390;28;20039;-82
2022/04/11 02:55:38;;;;;;;6.57;1.20;;;2.20;77.30;;;;;;4084497;28;20424;-81
2022/04/11 02:57:40;;;;;;;2.45;1.48;;;2.20;77.20;;;;;;4083515;28;20038;-80
2022/04/11 02:59:41;;;;;;;6.25;1.67;;;2.30;77.30;;;;;;4082568;28;20446;-81
2022/04/11 03:01:41;;;;;;;3.67;1.25;;;2.20;77.50;;;;;;4091670;28;20035;-81
2022/04/11 03:03:42;;;;;;;4.63;1.55;;;2.20;77.10;;;;;;4086281;28;20078;-82
2022/04/11 03:05:43;;;;;;;8.70;2.05;;;2.20;77.20;;;;;;4091686;28;20031;-81
2022/04/11 03:07:43;;;;;;;5.65;1.52;;;2.10;77.10;;;;;;4085787;28;20032;-81
2022/04/11 03:09:44;;;;;;;5.30;1.40;;;2.10;77.10;;;;;;4084648;28;20028;-82
2022/04/11 03:11:45;;;;;;;6.93;1.73;;;2.10;77.10;;;;;;4084995;28;20031;-81
2022/04/11 03:13:47;;;;;;;3.67;1.38;;;2.10;77.10;;;;;;4088357;28;20039;-82
2022/04/11 03:15:48;;;;;;;9.40;2.00;;;2.10;77.00;;;;;;4090088;28;20053;-81
2022/04/11 03:17:48;;;;;;;5.45;1.70;;;2.10;77.10;;;;;;4087670;28;20110;-82
2022/04/11 03:19:49;;;;;;;11.50;1.60;;;2.10;77.10;;;;;;4088223;28;20500;-82
2022/04/11 03:21:49;;;;;;;6.50;1.80;;;2.10;77.10;;;;;;4090868;28;20023;-83
2022/04/11 03:23:50;;;;;;;9.57;1.85;;;2.10;77.10;;;;;;4089010;28;20404;-81
2022/04/11 03:25:51;;;;;;;8.45;1.63;;;2.10;77.10;;;;;;4086771;28;20572;-82
2022/04/11 03:27:52;;;;;;;7.03;1.85;;;2.10;77.20;;;;;;4086592;28;20034;-82
2022/04/11 03:29:52;;;;;;;14.25;1.95;;;2.10;77.20;;;;;;4093624;28;20042;-82
2022/04/11 03:31:53;;;;;;;11.38;1.92;;;2.10;77.20;;;;;;4095337;28;20415;-81
2022/04/11 03:33:54;;;;;;;7.05;1.67;;;2.10;77.20;;;;;;4087762;28;20031;-82
2022/04/11 03:35:55;;;;;;;9.10;1.83;;;2.00;77.10;;;;;;4085493;28;20063;-81
2022/04/11 03:37:56;;;;;;;6.70;1.88;;;2.00;77.20;;;;;;4088544;28;20039;-81
2022/04/11 03:39:56;;;;;;;3.95;1.33;;;2.10;77.20;;;;;;4091471;28;20643;-82
2022/04/11 03:41:57;;;;;;;4.93;1.90;;;2.00;77.10;;;;;;4091487;28;20085;-80
2022/04/11 03:43:58;;;;;;;4.47;1.75;;;2.00;77.10;;;;;;4083694;28;20031;-82
2022/04/11 03:45:58;;;;;;;7.00;1.80;;;2.00;77.10;;;;;;4084087;28;20440;-82
2022/04/11 03:47:59;;;;;;;7.00;1.90;;;2.10;77.10;;;;;;4086171;28;20539;-83
2022/04/11 03:50:00;;;;;;;4.63;1.73;;;2.00;77.00;;;;;;4088816;28;20140;-81
2022/04/11 03:52:00;;;;;;;10.63;1.73;;;2.00;77.00;;;;;;4089301;28;20037;-82
2022/04/11 03:54:01;;;;;;;9.13;1.88;;;1.90;77.00;;;;;;4087973;28;20027;-81
2022/04/11 03:56:02;;;;;;;8.35;1.88;;;2.00;77.00;;;;;;4092312;28;20359;-83
2022/04/11 03:58:03;;;;;;;8.25;2.13;;;1.90;77.00;;;;;;4086115;28;20555;-82
2022/04/11 04:00:05;;;;;;;9.55;2.33;;;1.90;77.00;;;;;;4087692;28;20028;-80
2022/04/11 04:02:05;;;;;;;9.68;2.00;;;1.90;76.90;;;;;;4090850;28;20526;-82
2022/04/11 04:04:06;;;;;;;6.18;1.88;;;1.90;76.90;;;;;;4107394;28;20034;-82
2022/04/11 04:06:07;;;;;;;9.23;2.13;;;1.80;76.90;;;;;;4086685;28;20110;-82
2022/04/11 04:08:08;;;;;;;9.20;1.70;;;1.80;76.80;;;;;;4082716;28;20132;-81
2022/04/11 04:10:09;;;;;;;7.32;1.80;;;1.80;76.80;;;;;;4086979;28;20039;-83
2022/04/11 04:12:10;;;;;;;6.45;1.92;;;1.80;76.70;;;;;;4071414;29;20054;-82
2022/04/11 04:14:11;;;;;;;5.05;1.83;;;1.80;76.70;;;;;;4090349;28;20069;-83
2022/04/11 04:16:11;;;;;;;9.80;2.17;;;1.80;76.70;;;;;;4085148;28;20072;-82
2022/04/11 04:18:12;;;;;;;8.07;1.88;;;1.70;76.60;;;;;;4086683;28;20035;-82
2022/04/11 04:20:13;;;;;;;5.70;1.92;;;1.70;76.60;;;;;;4081095;28;20154;-83
2022/04/11 04:22:14;;;;;;;9.68;2.03;;;1.70;77.30;;;;;;4098916;28;20561;-81
2022/04/11 04:24:15;;;;;;;5.47;2.30;;;1.70;76.70;;;;;;4099205;28;20523;-83
2022/04/11 04:26:15;;;;;;;8.18;2.20;;;1.70;76.70;;;;;;4085169;28;20023;-82
2022/04/11 04:28:17;;;;;;;7.38;2.50;;;1.70;76.80;;;;;;4105812;28;20038;-81
2022/04/11 04:30:17;;;;;;;5.32;2.00;;;1.70;76.90;;;;;;4104067;28;20035;-82
2022/04/11 04:32:19;;;;;;;11.23;2.20;;;1.60;76.90;;;;;;4088460;28;20038;-81
2022/04/11 04:34:20;;;;;;;7.45;1.80;;;1.60;76.80;;;;;;4106300;28;20075;-84
2022/04/11 04:36:21;;;;;;;7.72;2.45;;;1.60;76.90;;;;;;4088774;28;20097;-83
2022/04/11 04:38:22;;;;;;;5.35;1.80;;;1.60;76.90;;;;;;4092427;28;20110;-83
2022/04/11 04:40:22;;;;;;;6.32;2.05;;;1.60;76.90;;;;;;4090733;28;20121;-81
2022/04/11 04:42:26;;;;;;;10.25;2.53;;;1.60;76.90;;;;;;4072913;29;20031;-81
2022/04/11 04:44:27;;;;;;;6.20;2.70;;;1.60;76.90;;;;;;4091520;28;20024;-81
2022/04/11 04:46:28;;;;;;;6.38;2.30;;;1.50;76.90;;;;;;4091805;28;20109;-83
2022/04/11 04:48:28;;;;;;;10.00;2.67;;;1.50;76.90;;;;;;4090789;28;20074;-83
2022/04/11 04:50:29;;;;;;;9.23;2.40;;;1.40;76.90;;;;;;4092076;28;20108;-80
2022/04/11 04:52:30;;;;;;;10.00;2.47;;;1.50;77.00;;;;;;4088371;28;20134;-83
2022/04/11 04:54:30;;;;;;;5.65;2.45;;;1.60;77.20;;;;;;4090771;28;20042;-83
2022/04/11 04:56:31;;;;;;;8.18;2.47;;;1.50;77.20;;;;;;4084226;28;20305;-82
2022/04/11 04:58:32;;;;;;;8.13;2.67;;;1.50;77.30;;;;;;4097177;28;20097;-81
2022/04/11 05:00:32;;;;;;;10.48;2.58;;;1.50;77.30;;;;;;4082598;28;20055;-83
2022/04/11 05:02:39;;;;;;;7.65;2.20;;;1.50;77.40;;;;;;4088857;28;20031;-81
2022/04/11 05:04:39;;;;;;;4.47;2.50;;;1.50;77.40;;;;;;4093365;28;20020;-79
2022/04/11 05:06:40;;;;;;;6.10;2.28;;;1.50;77.50;;;;;;4106356;28;20030;-80
2022/04/11 05:08:40;;;;;;;11.73;2.47;;;1.50;77.60;;;;;;4087108;28;20034;-81
2022/04/11 05:10:41;;;;;;;7.22;2.08;;;1.50;77.70;;;;;;4091755;28;20543;-82
2022/04/11 05:12:44;;;;;;;5.93;2.25;;;1.50;77.70;;;;;;4093564;28;20127;-83
2022/04/11 05:14:44;;;;;;;8.27;2.63;;;1.50;77.80;;;;;;4095425;28;20035;-82
2022/04/11 05:16:45;;;;;;;8.20;2.38;;;1.50;77.90;;;;;;4087115;28;20039;-81
2022/04/11 05:18:46;;;;;;;6.97;2.15;;;1.60;78.30;;;;;;4086959;28;20027;-82
2022/04/11 05:20:47;;;;;;;9.38;3.00;;;1.60;78.30;;;;;;4108259;28;20705;-81
2022/04/11 05:22:48;;;;;;;11.88;2.63;;;1.60;78.40;;;;;;4088238;28;20065;-82
2022/04/11 05:24:48;;;;;;;13.55;2.75;;;1.60;78.70;;;;;;4089501;28;20119;-82
2022/04/11 05:26:49;;;;;;;10.15;2.70;;;1.70;79.00;;;;;;4085953;28;20083;-83
2022/04/11 05:28:49;;;;;;;8.38;2.92;;;1.70;79.10;;;;;;4091380;28;20112;-82
2022/04/11 05:30:50;;;;;;;4.60;2.03;;;1.80;79.30;;;;;;4089827;28;20061;-82
2022/04/11 05:32:51;;;;;;;6.88;2.75;;;1.80;79.40;;;;;;4087867;28;21080;-82
2022/04/11 05:34:51;;;;;;;5.07;1.95;;;1.90;79.30;;;;;;4080065;28;20660;-82
2022/04/11 05:36:52;;;;;;;9.20;2.08;;;1.90;79.40;;;;;;4087456;28;20027;-82
2022/04/11 05:38:52;;;;;;;8.38;2.55;;;2.00;79.50;;;;;;4085855;28;20027;-83
2022/04/11 05:40:53;;;;;;;8.48;2.70;;;2.10;79.60;;;;;;4088568;28;20034;-83
2022/04/11 05:42:54;;;;;;;13.15;2.47;;;2.10;79.60;;;;;;4088670;28;20047;-82
2022/04/11 05:44:54;;;;;;;10.15;2.55;;;2.10;79.70;;;;;;4091134;28;20023;-82
2022/04/11 05:46:55;;;;;;;12.13;2.40;;;2.20;79.70;;;;;;4079254;28;20093;-81
2022/04/11 05:48:55;;;;;;;8.50;2.15;;;2.20;80.40;;;;;;4089283;28;20549;-82
2022/04/11 05:50:59;;;;;;;14.38;2.50;;;2.30;79.70;;;;;;4103448;28;20688;-82
2022/04/11 05:53:01;;;;;;;7.38;2.35;;;2.30;79.70;;;;;;4089629;28;20035;-83
2022/04/11 05:55:02;;;;;;;7.57;2.33;;;2.30;79.80;;;;;;4092273;28;20532;-82
2022/04/11 05:57:03;;;;;;;4.93;2.15;;;2.40;79.80;;;;;;4088794;28;20035;-82
2022/04/11 05:59:04;;;;;;;7.03;2.28;;;2.50;79.90;;;;;;4073319;29;20698;-83
2022/04/11 06:01:04;;;;;;;8.90;2.33;;;2.50;79.90;;;;;;4084991;28;20144;-83
2022/04/11 06:03:05;;;;;;;8.77;2.40;;;2.60;79.80;;;;;;4092072;28;20111;-82
2022/04/11 06:05:06;;;;;;;6.55;2.22;;;2.60;79.80;;;;;;4093365;28;20504;-82
2022/04/11 06:07:08;;;;;;;9.30;2.42;;;2.70;79.80;;;;;;4110112;28;20090;-82
2022/04/11 06:09:09;;;;;;;8.80;2.38;;;2.80;79.70;;;;;;4092736;28;20104;-83
2022/04/11 06:11:09;;;;;;;9.45;2.13;;;2.80;79.60;;;;;;4092559;28;20131;-82
2022/04/11 06:13:10;;;;;;;6.25;1.90;;;2.90;79.70;;;;;;4088840;28;20174;-83
2022/04/11 06:15:17;;;;;;;21.08;2.55;;;2.90;79.60;;;;;;4088784;28;20346;-83
2022/04/11 06:17:18;;;;;;;7.95;2.13;;;3.00;79.70;;;;;;4091631;28;20065;-83
2022/04/11 06:19:18;;;;;;;6.53;2.28;;;3.10;79.70;;;;;;4087701;28;20046;-83
2022/04/11 06:21:19;;;;;;;16.45;2.53;;;3.10;79.60;;;;;;4079931;28;20628;-83
2022/04/11 06:23:20;;;;;;;9.05;2.28;;;3.20;79.70;;;;;;4099614;28;20105;-81
2022/04/11 06:25:20;;;;;;;9.40;2.15;;;3.20;79.50;;;;;;4084701;28;20534;-81
2022/04/11 06:27:21;;;;;;;7.20;2.08;;;3.30;79.70;;;;;;4081482;28;20106;-83
2022/04/11 06:29:21;;;;;;;6.07;1.73;;;3.40;80.00;;;;;;4071462;29;20036;-82
2022/04/11 06:31:22;;;;;;;8.13;2.08;;;3.50;80.00;;;;;;4112914;28;20022;-82
2022/04/11 06:33:23;;;;;;;8.32;1.70;;;3.50;79.90;;;;;;4098930;28;20087;-83
2022/04/11 06:35:23;;;;;;;12.50;2.10;;;3.60;79.90;;;;;;4113221;28;20054;-82
2022/04/11 06:37:24;;;;;;;15.93;2.00;;;3.70;79.80;;;;;;4095487;29;20543;-84
2022/04/11 06:39:25;;;;;;;5.85;1.80;;;3.70;79.50;;;;;;4111929;28;20041;-81
2022/04/11 06:41:26;;;;;;;9.40;1.75;;;3.80;79.10;;;;;;4096292;28;20051;-82
2022/04/11 06:43:26;;;;;;;8.23;1.38;;;3.90;78.50;;;;;;4095801;28;20550;-83
2022/04/11 06:45:27;;;;;;;8.88;1.13;;;4.00;78.40;;;;;;4095235;28;20023;-81
2022/04/11 06:47:28;;;;;;;9.07;1.20;;;4.10;77.90;;;;;;4100640;28;20031;-82
2022/04/11 06:49:28;;;;;;;5.40;1.05;;;4.10;77.40;;;;;;4112357;28;20065;-83
2022/04/11 06:51:29;;;;;;;7.72;1.17;;;4.10;76.40;;;;;;4099310;28;20098;-82
2022/04/11 06:53:29;;;;;;;10.63;1.27;;;4.20;76.20;;;;;;4095889;29;20126;-82
2022/04/11 06:55:32;;;;;;;6.03;0.82;;;4.20;75.20;;;;;;4098674;29;20031;-84
2022/04/11 06:57:33;;;;;;;7.40;1.38;;;4.30;74.80;;;;;;4097401;29;20069;-84
2022/04/11 06:59:34;;;;;;;5.85;0.80;;;4.30;74.20;;;;;;4097583;29;20035;-82
2022/04/11 07:01:35;;;;;;;11.05;1.10;;;4.40;74.00;;;;;;4096209;28;20044;-83
2022/04/11 07:03:35;;;;;;;14.93;1.00;;;4.50;74.00;;;;;;4098005;29;20098;-83
2022/04/11 07:05:37;;;;;;;6.20;0.73;;;4.50;73.50;;;;;;4096054;29;20044;-84
2022/04/11 07:07:39;;;;;;;8.75;0.90;;;4.60;72.50;;;;;;4110442;28;20019;-83
2022/04/11 07:09:40;;;;;;;8.10;1.60;;;4.60;71.80;;;;;;4096280;28;20055;-83
2022/04/11 07:11:41;;;;;;;14.82;1.23;;;4.70;71.70;;;;;;4095139;28;20120;-82
2022/04/11 07:13:41;;;;;;;8.10;0.80;;;4.80;71.20;;;;;;4096362;28;20119;-83
2022/04/11 07:15:42;;;;;;;10.00;1.38;;;4.70;70.80;;;;;;4097138;29;20038;-84
2022/04/11 07:17:44;;;;;;;11.52;1.10;;;4.80;70.50;;;;;;4091455;29;20069;-83
2022/04/11 07:19:44;;;;;;;3.97;0.90;;;4.90;70.60;;;;;;4092653;28;20035;-84
2022/04/11 07:21:46;;;;;;;4.07;0.98;;;4.90;70.40;;;;;;4096377;29;20035;-83
2022/04/11 07:23:46;;;;;;;10.65;1.25;;;4.90;70.30;;;;;;4096367;29;20035;-83
2022/04/11 07:25:47;;;;;;;9.73;1.17;;;5.00;70.60;;;;;;4094623;29;20377;-82
2022/04/11 07:27:48;;;;;;;6.63;1.15;;;5.00;70.10;;;;;;4087973;29;20043;-83
2022/04/11 07:29:49;;;;;;;5.88;0.88;;;5.10;70.10;;;;;;4094745;28;20023;-83
2022/04/11 07:31:49;;;;;;;7.63;1.08;;;5.10;70.10;;;;;;4095306;29;20034;-83
2022/04/11 07:33:50;;;;;;;13.32;1.58;;;5.20;69.40;;;;;;4083653;29;20036;-81
2022/04/11 07:35:51;;;;;;;11.23;1.10;;;5.20;69.00;;;;;;4095753;29;20040;-84
2022/04/11 07:37:52;;;;;;;6.97;1.10;;;5.30;68.60;;;;;;4096565;28;20445;-83
2022/04/11 07:39:52;;;;;;;6.18;1.10;;;5.30;69.00;;;;;;4096548;29;20114;-83
2022/04/11 07:41:53;;;;;;;6.65;0.80;;;5.40;69.70;;;;;;4100941;29;20027;-84
2022/04/11 07:43:54;;;;;;;6.88;1.00;;;5.40;68.70;;;;;;4100440;28;20079;-84
2022/04/11 07:45:55;;;;;;;9.73;1.13;;;5.40;67.50;;;;;;4101473;29;20042;-83
2022/04/11 07:47:55;;;;;;;5.40;0.98;;;5.50;67.40;;;;;;4086184;29;20031;-84
2022/04/11 07:49:56;;;;;;;6.85;1.10;;;5.50;67.10;;;;;;4097062;28;20031;-83
2022/04/11 07:51:57;;;;;;;7.88;0.82;;;5.60;67.50;;;;;;4096853;29;20024;-83
2022/04/11 07:53:57;;;;;;;8.40;1.00;;;5.60;67.30;;;;;;4094521;29;20042;-83
2022/04/11 07:55:58;;;;;;;5.88;0.73;;;5.60;66.30;;;;;;4096873;29;20061;-84
2022/04/11 07:57:59;;;;;;;6.70;0.85;;;5.60;65.60;;;;;;4095284;28;20463;-85
2022/04/11 08:00:00;;;;;;;6.32;0.98;;;5.70;65.70;;;;;;4095380;28;20484;-83
2022/04/11 08:02:00;;;;;;;5.18;0.90;;;5.80;65.10;;;;;;4109843;28;20027;-83
2022/04/11 08:04:01;;;;;;;4.13;0.60;;;5.70;64.00;;;;;;4092463;28;20035;-83
2022/04/11 08:06:02;;;;;;;6.80;0.95;;;5.70;63.60;;;;;;4093146;28;20027;-83
2022/04/11 08:08:02;;;;;;;5.68;0.98;;;5.80;64.00;;;;;;4095926;29;20043;-83
2022/04/11 08:10:05;;;;;;;6.55;0.98;;;5.80;63.30;;;;;;4111704;28;20541;-83
2022/04/11 08:12:06;;;;;;;6.20;0.65;;;5.90;64.10;;;;;;4097457;29;20158;-84
2022/04/11 08:14:07;;;;;;;7.93;1.02;;;5.80;62.80;;;;;;4067050;29;20044;-83
2022/04/11 08:16:08;;;;;;;7.93;0.77;;;6.00;63.30;;;;;;4097300;29;20043;-83
2022/04/11 08:18:08;;;;;;;6.28;0.90;;;5.90;62.80;;;;;;4096600;29;20089;-83
2022/04/11 08:20:09;;;;;;;4.40;0.93;;;5.90;61.30;;;;;;4096848;28;20063;-84
2022/04/11 08:22:10;;;;;;;6.10;1.00;;;6.00;60.60;;;;;;4097190;28;20031;-83
2022/04/11 08:24:10;;;;;;;4.80;0.98;;;6.00;60.80;;;;;;4092949;29;20045;-85
2022/04/11 08:26:11;;;;;;;4.22;0.85;;;6.10;60.40;;;;;;4110295;28;20033;-84
2022/04/11 08:28:12;;;;;;;5.63;0.80;;;6.10;59.60;;;;;;4098934;28;20031;-84
2022/04/11 08:30:13;;;;;;;4.38;0.90;;;6.10;59.80;;;;;;4098776;28;20019;-84
2022/04/11 08:32:14;;;;;;;6.07;0.82;;;6.20;59.40;;;;;;4095145;29;20115;-84
2022/04/11 08:34:15;;;;;;;8.48;0.82;;;6.30;58.60;;;;;;4096334;29;20459;-84
2022/04/11 08:36:15;;;;;;;2.92;0.70;;;6.20;59.10;;;;;;4098443;28;20133;-84
2022/04/11 08:38:16;;;;;;;6.18;0.80;;;6.30;59.20;;;;;;4099758;28;20027;-82
2022/04/11 08:40:19;;;;;;;4.25;0.80;;;6.40;59.60;;;;;;4099493;28;20035;-83
2022/04/11 08:42:23;;;;;;;3.35;0.70;;;6.40;59.70;;;;;;4099394;29;20539;-85
2022/04/11 08:44:24;;;;;;;6.40;1.00;;;6.40;59.30;;;;;;4100204;28;20407;-83
2022/04/11 08:46:26;;;;;;;5.75;0.90;;;6.40;59.00;;;;;;4100017;29;20027;-83
2022/04/11 08:48:26;;;;;;;7.28;0.80;;;6.50;58.80;;;;;;4097247;28;20515;-83
2022/04/11 08:50:27;;;;;;;10.00;1.05;;;6.40;58.60;;;;;;4099696;28;20119;-83
2022/04/11 08:52:29;;;;;;;10.65;1.00;;;6.40;58.60;;;;;;4101337;29;20027;-84
2022/04/11 08:54:30;;;;;;;6.50;0.75;;;6.40;58.80;;;;;;4101210;28;20488;-84
2022/04/11 08:56:32;;;;;;;6.38;0.60;;;6.40;58.90;;;;;;4101575;28;20183;-82
2022/04/11 08:58:32;;;;;;;3.72;0.90;;;6.30;58.60;;;;;;4100867;29;20078;-85
2022/04/11 09:00:33;;;;;;;2.97;0.52;;;6.30;58.20;;;;;;4096054;28;20440;-85
2022/04/11 09:02:34;;;;;;;14.32;1.55;;;6.40;58.20;;;;;;4099594;28;20464;-83
2022/04/11 09:04:51;;;;;;;5.97;0.88;;;6.40;58.20;;;;;;4096767;28;20027;-85
2022/04/11 09:06:56;;;;;;;3.75;0.70;;;6.30;57.60;;;;;;4109527;28;20031;-83
2022/04/11 09:08:58;;;;;;;2.42;0.60;;;6.30;57.90;;;;;;4098595;28;20027;-84
2022/04/11 09:10:58;;;;;;;7.78;1.00;;;6.30;58.00;;;;;;4096112;29;20415;-85
2022/04/11 09:13:01;;;;;;;7.80;0.90;;;6.30;58.10;;;;;;4098129;28;20027;-83
2022/04/11 09:15:05;;;;;;;6.70;0.82;;;6.40;58.20;;;;;;4101049;28;20038;-84
2022/04/11 09:17:09;;;;;;;6.82;0.80;;;6.40;58.20;;;;;;4095340;29;20138;-82
2022/04/11 09:19:22;;;;;;;9.88;1.23;;;6.40;57.30;;;;;;4110154;28;20035;-83
2022/04/11 09:21:24;;;;;;;7.20;1.02;;;6.50;57.30;;;;;;4094003;28;20039;-84
2022/04/11 09:23:24;;;;;;;6.93;1.02;;;6.40;57.00;;;;;;4080937;29;20083;-82
2022/04/11 09:25:30;;;;;;;8.60;1.00;;;6.60;57.40;;;;;;4093840;29;20452;-84
2022/04/11 09:27:30;;;;;;;5.88;0.70;;;6.50;57.30;;;;;;4099294;29;20066;-83
2022/04/11 09:29:33;;;;;;;5.53;0.60;;;6.60;57.50;;;;;;4098848;28;20046;-84
2022/04/11 09:31:34;;;;;;;5.97;0.60;;;6.60;56.80;;;;;;4099379;28;20031;-84
2022/04/11 09:33:39;;;;;;;9.52;0.82;;;6.60;56.80;;;;;;4099773;29;20027;-83
2022/04/11 09:35:47;;;;;;;5.88;0.70;;;6.70;57.00;;;;;;4099798;29;20445;-83
2022/04/11 09:37:48;;;;;;;3.28;0.70;;;6.80;57.70;;;;;;4081402;29;20028;-83
2022/04/11 09:39:56;;;;;;;5.68;0.88;;;6.80;57.70;;;;;;4096664;28;20027;-84
2022/04/11 09:41:57;;;;;;;6.45;0.70;;;6.90;57.70;;;;;;4093576;28;20174;-84
2022/04/11 09:44:20;;;;;;;9.48;1.00;;;7.10;57.50;;;;;;4111761;28;20023;-84
2022/04/11 09:46:21;;;;;;;7.30;0.88;;;7.10;56.70;;;;;;4112768;28;20102;-84
2022/04/11 09:48:27;;;;;;;8.38;1.20;;;7.20;57.10;;;;;;4095774;29;20087;-83
2022/04/11 09:50:31;;;;;;;5.70;1.00;;;7.20;55.40;;;;;;4080427;29;20058;-84
2022/04/11 09:52:32;;;;;;;6.25;0.73;;;7.20;54.90;;;;;;4095538;29;20034;-83
2022/04/11 09:54:34;;;;;;;10.93;1.02;;;7.20;54.60;;;;;;4098251;29;20483;-83
2022/04/11 09:56:36;;;;;;;4.93;0.82;;;7.20;54.50;;;;;;4097220;28;20019;-83
2022/04/11 09:58:38;;;;;;;12.20;1.00;;;7.20;54.30;;;;;;4096781;28;20089;-83
2022/04/11 10:00:42;;;;;;;4.93;0.75;;;7.20;54.40;;;;;;4092080;29;20069;-83
2022/04/11 10:02:44;;;;;;;;;;;7.20;54.20;;;;;;4096698;28;20043;-83
2022/04/11 10:04:46;;;;;;;3.45;0.50;;;7.30;54.00;;;;;;4096775;28;19906;-83
2022/04/11 10:06:48;;;;;;;4.53;0.73;;;7.20;53.90;;;;;;4096831;28;20504;-82
2022/04/11 10:08:49;;;;;;;6.70;0.95;;;7.30;54.80;;;;;;4110385;28;20434;-83
2022/04/11 10:10:52;;;;;;;4.10;0.50;;;7.30;55.20;;;;;;4090409;28;20031;-83
2022/04/11 10:12:53;;;;;;;6.17;0.90;;;7.40;54.90;;;;;;4092287;28;20038;-83
2022/04/11 10:14:54;;;;;;;5.80;0.80;;;7.50;53.90;;;;;;4109545;28;20338;-83
2022/04/11 10:16:57;;;;;;;7.45;0.60;;;7.70;53.70;;;;;;4092154;29;20300;-83
2022/04/11 10:19:02;;;;;;;5.63;0.88;;;7.70;53.20;;;;;;4094562;29;20019;-82
2022/04/11 10:21:05;;;;;;;5.88;0.50;;;7.70;52.40;;;;;;4096965;28;20492;-84
2022/04/11 10:23:32;;;;;;;3.97;0.57;;;7.70;52.00;;;;;;4096051;29;20110;-84
2022/04/11 10:25:43;;;;;;;3.65;0.35;;;7.70;51.70;;;;;;4091183;28;20464;-83
2022/04/11 10:27:45;;;;;;;3.28;0.47;;;7.70;51.50;;;;;;4097132;29;20035;-83
2022/04/11 10:29:48;;;;;;;2.38;0.50;;;7.70;51.70;;;;;;4094852;28;20031;-83
2022/04/11 10:32:03;;;;;;;;;;;7.70;51.20;;;;;;4112194;28;20019;-83
2022/04/11 10:34:04;;;;;;;12.32;0.80;;;7.70;51.10;;;;;;4094505;28;19911;-83
2022/04/11 10:36:31;;;;;;;1.65;0.38;;;7.70;50.30;;;;;;4079782;29;20091;-85
2022/04/11 10:38:32;;;;;;;2.45;0.70;;;7.70;49.80;;;;;;4095523;28;20046;-84